createdAt,value
2022-11-02T00:01:15.729Z,9.34
2022-11-02T00:06:17.589Z,9.50
2022-11-02T00:11:19.259Z,9.58
2022-11-02T00:16:23.023Z,9.66
2022-11-02T00:21:27.109Z,9.59
2022-11-02T00:26:29.263Z,9.61
2022-11-02T00:31:30.950Z,9.61
2022-11-02T00:36:33.705Z,9.46
2022-11-02T00:41:35.287Z,9.49
2022-11-02T00:46:37.412Z,9.47
2022-11-02T00:51:39.187Z,9.47
2022-11-02T00:56:40.826Z,9.40
2022-11-02T01:01:47.445Z,9.32
2022-11-02T01:06:49.301Z,9.31
2022-11-02T01:11:51.349Z,9.33
2022-11-02T01:16:53.064Z,9.21
2022-11-02T01:21:54.760Z,9.31
2022-11-02T01:26:56.367Z,9.24
2022-11-02T01:31:58.047Z,9.20
2022-11-02T01:36:59.829Z,9.17
2022-11-02T01:42:01.728Z,9.16
2022-11-02T01:47:16.054Z,9.20
2022-11-02T01:52:24.260Z,9.10
2022-11-02T01:57:28.323Z,9.12
2022-11-02T02:02:30.188Z,9.01
2022-11-02T02:07:33.991Z,9.03
2022-11-02T02:12:39.755Z,9.05
2022-11-02T02:17:45.078Z,9.04
2022-11-02T02:23:18.841Z,9.02
2022-11-02T02:28:53.489Z,9.05
2022-11-02T02:34:03.938Z,9.03
2022-11-02T02:39:14.202Z,9.10
2022-11-02T02:44:22.450Z,9.07
2022-11-02T02:49:38.066Z,9.02
2022-11-02T02:54:43.796Z,8.88
2022-11-02T02:59:48.831Z,8.88
2022-11-02T03:04:53.427Z,8.76
2022-11-02T03:10:11.292Z,8.79
2022-11-02T03:15:19.191Z,8.77
2022-11-02T03:20:33.684Z,8.88
2022-11-02T03:25:56.857Z,8.89
2022-11-02T03:31:08.514Z,8.66
2022-11-02T03:36:19.636Z,8.69
2022-11-02T03:41:24.701Z,8.84
2022-11-02T03:46:27.678Z,9.01
2022-11-02T03:51:31.210Z,9.20
2022-11-02T03:56:41.830Z,9.34
2022-11-02T04:01:47.473Z,9.46
2022-11-02T04:06:49.670Z,9.49
2022-11-02T04:12:31.379Z,9.56
2022-11-02T04:17:51.651Z,9.60
2022-11-02T04:23:12.833Z,9.20
2022-11-02T04:28:15.881Z,9.20
2022-11-02T04:33:35.249Z,9.31
2022-11-02T04:38:50.056Z,9.39
2022-11-02T04:43:59.236Z,9.43
2022-11-02T04:49:01.490Z,9.56
2022-11-02T04:54:06.389Z,9.55
2022-11-02T04:59:08.621Z,9.53
2022-11-02T05:04:12.342Z,9.54
2022-11-02T05:09:14.769Z,9.59
2022-11-02T05:14:19.984Z,9.61
2022-11-02T05:19:22.073Z,9.63
2022-11-02T05:24:24.193Z,9.60
2022-11-02T05:29:26.779Z,9.65
2022-11-02T05:34:29.047Z,9.68
2022-11-02T05:39:30.904Z,9.71
2022-11-02T05:44:33.440Z,9.70
2022-11-02T05:49:35.473Z,9.68
2022-11-02T05:54:37.213Z,9.62
2022-11-02T05:59:38.862Z,9.61
2022-11-02T06:04:40.595Z,9.60
2022-11-02T06:09:42.379Z,9.68
2022-11-02T06:14:44.103Z,9.72
2022-11-02T06:19:45.875Z,9.70
2022-11-02T06:24:47.544Z,9.77
2022-11-02T06:29:49.182Z,9.78
2022-11-02T06:34:50.850Z,9.83
2022-11-02T06:39:52.565Z,9.77
2022-11-02T06:44:54.285Z,9.72
2022-11-02T06:49:56.208Z,9.77
2022-11-02T06:54:57.849Z,9.69
2022-11-02T07:00:04.763Z,9.73
2022-11-02T07:05:06.921Z,9.75
2022-11-02T07:10:10.761Z,9.72
2022-11-02T07:15:13.441Z,9.87
2022-11-02T07:20:15.423Z,9.95
2022-11-02T07:25:17.261Z,9.91
2022-11-02T07:30:22.226Z,9.96
2022-11-02T07:35:24.617Z,9.94
2022-11-02T07:40:27.187Z,9.95
2022-11-02T07:45:31.420Z,9.94
2022-11-02T07:50:33.008Z,9.97
2022-11-02T07:55:34.823Z,10.08
2022-11-02T08:00:38.544Z,9.98
2022-11-02T08:05:42.893Z,10.01
2022-11-02T08:10:48.723Z,10.16
2022-11-02T08:15:52.027Z,10.14
2022-11-02T08:20:56.619Z,10.24
2022-11-02T08:25:59.390Z,10.20
2022-11-02T08:31:01.156Z,10.21
2022-11-02T08:36:04.813Z,10.29
2022-11-02T08:41:06.569Z,10.47
2022-11-02T08:46:14.909Z,10.62
2022-11-02T08:51:18.177Z,10.65
2022-11-02T08:56:20.513Z,10.85
2022-11-02T09:01:27.283Z,10.88
2022-11-02T09:06:29.126Z,10.84
2022-11-02T09:11:30.943Z,10.92
2022-11-02T09:16:34.410Z,11.01
2022-11-02T09:21:39.160Z,11.12
2022-11-02T09:26:40.944Z,11.18
2022-11-02T09:31:42.702Z,11.24
2022-11-02T09:36:44.375Z,11.23
2022-11-02T09:42:01.790Z,11.42
2022-11-02T09:47:49.907Z,11.66
2022-11-02T09:52:36.028Z,11.55
2022-11-02T09:57:42.587Z,11.53
2022-11-02T10:03:00.055Z,11.54
2022-11-02T10:08:40.015Z,11.76
2022-11-02T10:13:54.176Z,11.77
2022-11-02T10:18:58.428Z,11.98
2022-11-02T10:24:10.604Z,12.05
2022-11-02T10:29:44.720Z,12.20
2022-11-02T10:34:58.543Z,12.29
2022-11-02T10:40:46.665Z,12.33
2022-11-02T10:46:05.835Z,12.25
2022-11-02T10:51:15.704Z,12.19
2022-11-02T10:56:20.253Z,12.22
2022-11-02T11:01:22.107Z,12.19
2022-11-02T11:06:26.881Z,12.14
2022-11-02T11:11:39.602Z,12.29
2022-11-02T11:16:46.452Z,12.45
2022-11-02T11:21:52.098Z,12.34
2022-11-02T11:27:12.351Z,12.31
2022-11-02T11:32:19.177Z,12.34
2022-11-02T11:37:21.673Z,12.48
2022-11-02T11:42:27.361Z,12.46
2022-11-02T11:47:38.500Z,12.53
2022-11-02T11:52:40.550Z,12.42
2022-11-02T11:57:43.816Z,12.33
2022-11-02T12:03:03.042Z,12.34
2022-11-02T12:08:31.330Z,12.36
2022-11-02T12:13:50.581Z,12.33
2022-11-02T12:19:16.951Z,12.36
2022-11-02T12:24:34.020Z,12.53
2022-11-02T12:29:45.977Z,12.33
2022-11-02T12:35:28.252Z,12.27
2022-11-02T12:41:00.187Z,12.34
2022-11-02T12:46:43.368Z,12.28
2022-11-02T12:52:25.137Z,12.24
2022-11-02T12:57:31.829Z,12.38
2022-11-02T13:02:47.942Z,12.21
2022-11-02T13:08:12.402Z,12.22
2022-11-02T13:13:28.020Z,12.19
2022-11-02T13:19:00.669Z,12.15
2022-11-02T13:24:04.723Z,12.06
2022-11-02T13:29:53.027Z,12.14
2022-11-02T13:34:55.735Z,12.08
2022-11-02T13:40:02.063Z,12.15
2022-11-02T13:45:35.855Z,12.11
2022-11-02T13:50:45.377Z,12.10
2022-11-02T13:55:55.991Z,12.01
2022-11-02T14:01:03.937Z,11.94
2022-11-02T14:06:14.626Z,11.90
2022-11-02T14:11:16.253Z,11.89
2022-11-02T14:16:42.947Z,11.88
2022-11-02T14:22:13.175Z,11.85
2022-11-02T14:27:16.611Z,11.82
2022-11-02T14:32:28.311Z,11.76
2022-11-02T14:37:57.991Z,11.75
2022-11-02T14:42:59.702Z,11.66
2022-11-02T14:48:05.696Z,11.77
2022-11-02T14:53:15.239Z,11.72
2022-11-02T14:58:26.253Z,11.56
2022-11-02T15:03:28.867Z,11.52
2022-11-02T15:08:34.766Z,11.52
2022-11-02T15:13:47.602Z,11.43
2022-11-02T15:18:49.343Z,11.35
2022-11-02T15:23:55.150Z,11.29
2022-11-02T15:29:01.328Z,11.22
2022-11-02T15:34:13.540Z,11.23
2022-11-02T15:39:18.245Z,11.13
2022-11-02T15:44:55.517Z,11.13
2022-11-02T15:50:35.200Z,11.06
2022-11-02T15:56:05.130Z,10.97
2022-11-02T16:01:26.706Z,10.87
2022-11-02T16:06:43.086Z,10.83
2022-11-02T16:12:03.119Z,10.73
2022-11-02T16:17:05.465Z,10.64
2022-11-02T16:22:09.322Z,10.67
2022-11-02T16:27:14.063Z,10.67
2022-11-02T16:32:16.148Z,10.63
2022-11-02T16:37:19.700Z,10.55
2022-11-02T16:42:25.571Z,10.60
2022-11-02T16:47:41.526Z,10.45
2022-11-02T16:52:54.266Z,10.48
2022-11-02T16:58:02.805Z,10.44
2022-11-02T17:03:11.200Z,10.40
2022-11-02T17:08:30.033Z,10.36
2022-11-02T17:13:35.718Z,10.34
2022-11-02T17:18:38.311Z,10.33
2022-11-02T17:23:43.292Z,10.33
2022-11-02T17:28:47.014Z,10.28
2022-11-02T17:33:49.713Z,10.23
2022-11-02T17:38:51.980Z,10.24
2022-11-02T17:44:16.920Z,10.21
2022-11-02T17:49:20.827Z,10.19
2022-11-02T17:54:26.675Z,10.16
2022-11-02T17:59:29.312Z,10.10
2022-11-02T18:04:31.194Z,10.13
2022-11-02T18:09:33.044Z,10.10
2022-11-02T18:14:37.325Z,10.07
2022-11-02T18:19:39.858Z,10.06
2022-11-02T18:24:43.669Z,9.98
2022-11-02T18:35:10.085Z,10.00
2022-11-02T18:40:19.423Z,10.07
2022-11-02T18:45:21.931Z,10.00
2022-11-02T18:50:24.467Z,10.06
2022-11-02T18:55:27.560Z,10.08
2022-11-02T19:00:29.393Z,10.09
2022-11-02T19:05:53.849Z,10.07
2022-11-02T19:10:58.589Z,10.06
2022-11-02T19:16:00.635Z,10.06
2022-11-02T19:21:02.365Z,10.03
2022-11-02T19:26:04.902Z,10.00
2022-11-02T19:31:08.410Z,9.95
2022-11-02T19:36:14.681Z,9.96
2022-11-02T19:41:17.596Z,9.97
2022-11-02T19:46:21.378Z,10.01
2022-11-02T19:51:28.507Z,9.99
2022-11-02T19:56:32.979Z,10.04
2022-11-02T20:02:06.953Z,10.03
2022-11-02T20:07:08.611Z,10.03
2022-11-02T20:12:10.274Z,10.07
2022-11-02T20:17:30.269Z,10.12
2022-11-02T20:22:35.582Z,10.05
2022-11-02T20:27:41.158Z,10.08
2022-11-02T20:32:43.652Z,10.10
2022-11-02T20:37:45.565Z,10.10
2022-11-02T20:42:49.642Z,10.07
2022-11-02T20:47:52.054Z,10.10
2022-11-02T20:52:55.372Z,10.14
2022-11-02T20:58:06.507Z,10.16
2022-11-02T21:03:08.981Z,10.14
2022-11-02T21:08:31.954Z,10.18
2022-11-02T21:14:01.164Z,10.16
2022-11-02T21:24:52.178Z,10.23
2022-11-02T21:29:57.326Z,10.21
2022-11-02T21:35:02.913Z,10.23
2022-11-02T21:40:08.366Z,10.19
2022-11-02T21:45:17.692Z,10.27
2022-11-02T21:50:19.757Z,10.19
2022-11-02T21:55:21.536Z,10.24
2022-11-02T22:00:43.347Z,10.29
2022-11-02T22:05:55.244Z,10.29
2022-11-02T22:10:57.618Z,10.25
2022-11-02T22:16:07.692Z,10.33
2022-11-02T22:21:10.301Z,10.26
2022-11-02T22:26:15.467Z,10.25
2022-11-02T22:31:23.026Z,10.24
2022-11-02T22:36:27.001Z,10.27
2022-11-02T22:41:38.014Z,10.26
2022-11-02T22:46:44.683Z,10.27
2022-11-02T22:51:48.952Z,10.25
2022-11-02T22:56:50.727Z,10.24
2022-11-02T23:01:52.446Z,10.20
2022-11-02T23:06:54.210Z,10.21
2022-11-02T23:11:55.871Z,10.19
2022-11-02T23:16:58.712Z,10.19
2022-11-02T23:22:21.233Z,10.23
2022-11-02T23:27:23.410Z,10.26
2022-11-02T23:32:27.866Z,10.33
2022-11-02T23:37:30.208Z,10.26
2022-11-02T23:42:32.205Z,10.27
2022-11-02T23:47:52.401Z,10.26
2022-11-02T23:53:12.913Z,10.24
2022-11-02T23:58:14.687Z,10.19
